sensor_id;sensor_type;location;lat;lon;timestamp;P1;durP1;ratioP1;P2;durP2;ratioP2
57233;SDS011;43090;52.604;13.318;2024-02-15T00:01:22;15.20;;;8.07;;
57233;SDS011;43090;52.604;13.318;2024-02-15T00:03:51;13.27;;;8.15;;
57233;SDS011;43090;52.604;13.318;2024-02-15T00:08:44;17.10;;;8.70;;
57233;SDS011;43090;52.604;13.318;2024-02-15T00:11:11;15.07;;;7.30;;
57233;SDS011;43090;52.604;13.318;2024-02-15T00:13:39;16.02;;;8.68;;
57233;SDS011;43090;52.604;13.318;2024-02-15T00:16:05;16.02;;;8.98;;
57233;SDS011;43090;52.604;13.318;2024-02-15T00:18:34;15.20;;;9.27;;
57233;SDS011;43090;52.604;13.318;2024-02-15T00:21:03;17.10;;;8.80;;
57233;SDS011;43090;52.604;13.318;2024-02-15T00:23:30;15.52;;;9.05;;
57233;SDS011;43090;52.604;13.318;2024-02-15T00:25:58;15.63;;;8.73;;
57233;SDS011;43090;52.604;13.318;2024-02-15T00:28:25;12.35;;;7.75;;
57233;SDS011;43090;52.604;13.318;2024-02-15T00:30:53;15.77;;;8.93;;
57233;SDS011;43090;52.604;13.318;2024-02-15T00:33:19;20.73;;;9.02;;
57233;SDS011;43090;52.604;13.318;2024-02-15T00:35:47;18.98;;;9.85;;
57233;SDS011;43090;52.604;13.318;2024-02-15T00:38:26;15.98;;;9.73;;
57233;SDS011;43090;52.604;13.318;2024-02-15T00:40:53;22.63;;;9.98;;
57233;SDS011;43090;52.604;13.318;2024-02-15T00:43:20;13.43;;;8.73;;
57233;SDS011;43090;52.604;13.318;2024-02-15T00:48:13;19.48;;;10.07;;
57233;SDS011;43090;52.604;13.318;2024-02-15T00:50:40;17.50;;;9.48;;
57233;SDS011;43090;52.604;13.318;2024-02-15T00:53:09;17.08;;;9.18;;
57233;SDS011;43090;52.604;13.318;2024-02-15T00:55:35;22.75;;;10.90;;
57233;SDS011;43090;52.604;13.318;2024-02-15T01:00:29;14.18;;;9.85;;
57233;SDS011;43090;52.604;13.318;2024-02-15T01:02:55;22.15;;;12.85;;
57233;SDS011;43090;52.604;13.318;2024-02-15T01:10:16;20.55;;;12.15;;
57233;SDS011;43090;52.604;13.318;2024-02-15T01:15:15;22.85;;;12.40;;
57233;SDS011;43090;52.604;13.318;2024-02-15T01:17:44;24.67;;;11.27;;
57233;SDS011;43090;52.604;13.318;2024-02-15T01:20:11;24.17;;;11.40;;
57233;SDS011;43090;52.604;13.318;2024-02-15T01:22:38;23.20;;;10.23;;
57233;SDS011;43090;52.604;13.318;2024-02-15T01:25:05;22.85;;;13.18;;
57233;SDS011;43090;52.604;13.318;2024-02-15T01:27:33;20.30;;;10.43;;
57233;SDS011;43090;52.604;13.318;2024-02-15T01:30:02;22.52;;;13.00;;
57233;SDS011;43090;52.604;13.318;2024-02-15T01:32:40;24.20;;;10.82;;
57233;SDS011;43090;52.604;13.318;2024-02-15T01:35:09;18.13;;;11.70;;
57233;SDS011;43090;52.604;13.318;2024-02-15T01:37:36;19.33;;;12.30;;
57233;SDS011;43090;52.604;13.318;2024-02-15T01:40:04;22.08;;;12.63;;
57233;SDS011;43090;52.604;13.318;2024-02-15T01:42:33;19.38;;;11.70;;
57233;SDS011;43090;52.604;13.318;2024-02-15T01:47:26;21.90;;;12.60;;
57233;SDS011;43090;52.604;13.318;2024-02-15T01:49:53;23.20;;;12.63;;
57233;SDS011;43090;52.604;13.318;2024-02-15T01:52:24;26.25;;;12.75;;
57233;SDS011;43090;52.604;13.318;2024-02-15T01:55:05;20.15;;;11.38;;
57233;SDS011;43090;52.604;13.318;2024-02-15T01:57:35;18.80;;;11.55;;
57233;SDS011;43090;52.604;13.318;2024-02-15T02:00:05;18.27;;;10.88;;
57233;SDS011;43090;52.604;13.318;2024-02-15T02:02:35;23.15;;;12.60;;
57233;SDS011;43090;52.604;13.318;2024-02-15T02:05:05;20.15;;;11.35;;
57233;SDS011;43090;52.604;13.318;2024-02-15T02:07:32;18.23;;;11.38;;
57233;SDS011;43090;52.604;13.318;2024-02-15T02:09:58;18.50;;;10.32;;
57233;SDS011;43090;52.604;13.318;2024-02-15T02:12:35;19.45;;;11.48;;
57233;SDS011;43090;52.604;13.318;2024-02-15T02:15:01;21.67;;;11.25;;
57233;SDS011;43090;52.604;13.318;2024-02-15T02:19:55;20.50;;;11.95;;
57233;SDS011;43090;52.604;13.318;2024-02-15T02:22:23;24.50;;;12.65;;
57233;SDS011;43090;52.604;13.318;2024-02-15T02:24:57;19.42;;;11.82;;
57233;SDS011;43090;52.604;13.318;2024-02-15T02:27:37;29.20;;;14.40;;
57233;SDS011;43090;52.604;13.318;2024-02-15T02:46:01;26.00;;;14.60;;
57233;SDS011;43090;52.604;13.318;2024-02-15T02:48:28;29.60;;;14.95;;
57233;SDS011;43090;52.604;13.318;2024-02-15T02:50:54;30.60;;;16.77;;
57233;SDS011;43090;52.604;13.318;2024-02-15T02:55:50;31.58;;;16.10;;
57233;SDS011;43090;52.604;13.318;2024-02-15T02:58:27;29.00;;;15.45;;
57233;SDS011;43090;52.604;13.318;2024-02-15T03:00:55;32.20;;;16.35;;
57233;SDS011;43090;52.604;13.318;2024-02-15T03:03:22;29.02;;;16.42;;
57233;SDS011;43090;52.604;13.318;2024-02-15T03:05:49;24.45;;;14.73;;
57233;SDS011;43090;52.604;13.318;2024-02-15T03:08:15;29.55;;;15.95;;
57233;SDS011;43090;52.604;13.318;2024-02-15T03:10:43;28.08;;;15.50;;
57233;SDS011;43090;52.604;13.318;2024-02-15T03:13:10;23.67;;;14.05;;
57233;SDS011;43090;52.604;13.318;2024-02-15T03:15:36;23.38;;;13.90;;
57233;SDS011;43090;52.604;13.318;2024-02-15T03:18:06;26.20;;;14.55;;
57233;SDS011;43090;52.604;13.318;2024-02-15T03:20:33;29.48;;;15.50;;
57233;SDS011;43090;52.604;13.318;2024-02-15T03:23:03;28.23;;;15.05;;
57233;SDS011;43090;52.604;13.318;2024-02-15T03:25:29;27.73;;;15.68;;
57233;SDS011;43090;52.604;13.318;2024-02-15T03:27:57;22.15;;;13.48;;
57233;SDS011;43090;52.604;13.318;2024-02-15T03:30:25;25.77;;;14.45;;
57233;SDS011;43090;52.604;13.318;2024-02-15T03:36:33;22.90;;;12.88;;
57233;SDS011;43090;52.604;13.318;2024-02-15T03:38:59;27.85;;;15.48;;
57233;SDS011;43090;52.604;13.318;2024-02-15T03:41:29;27.52;;;15.88;;
57233;SDS011;43090;52.604;13.318;2024-02-15T03:46:58;24.67;;;14.65;;
57233;SDS011;43090;52.604;13.318;2024-02-15T03:49:25;30.50;;;16.05;;
57233;SDS011;43090;52.604;13.318;2024-02-15T03:51:53;31.23;;;16.08;;
57233;SDS011;43090;52.604;13.318;2024-02-15T03:54:21;27.10;;;15.30;;
57233;SDS011;43090;52.604;13.318;2024-02-15T03:56:50;29.13;;;15.48;;
57233;SDS011;43090;52.604;13.318;2024-02-15T03:59:21;31.38;;;15.82;;
57233;SDS011;43090;52.604;13.318;2024-02-15T04:01:53;26.60;;;15.30;;
57233;SDS011;43090;52.604;13.318;2024-02-15T04:04:22;28.65;;;15.70;;
57233;SDS011;43090;52.604;13.318;2024-02-15T04:06:55;27.70;;;14.75;;
57233;SDS011;43090;52.604;13.318;2024-02-15T04:09:23;29.60;;;14.35;;
57233;SDS011;43090;52.604;13.318;2024-02-15T04:11:49;32.53;;;14.82;;
57233;SDS011;43090;52.604;13.318;2024-02-15T04:14:20;28.27;;;15.35;;
57233;SDS011;43090;52.604;13.318;2024-02-15T04:16:46;27.50;;;14.65;;
57233;SDS011;43090;52.604;13.318;2024-02-15T04:19:13;30.27;;;14.38;;
57233;SDS011;43090;52.604;13.318;2024-02-15T04:21:40;30.92;;;15.77;;
57233;SDS011;43090;52.604;13.318;2024-02-15T04:26:36;27.02;;;14.60;;
57233;SDS011;43090;52.604;13.318;2024-02-15T04:29:03;26.63;;;14.88;;
57233;SDS011;43090;52.604;13.318;2024-02-15T04:31:34;27.25;;;14.63;;
57233;SDS011;43090;52.604;13.318;2024-02-15T04:34:03;24.10;;;14.15;;
57233;SDS011;43090;52.604;13.318;2024-02-15T04:36:30;24.30;;;13.10;;
57233;SDS011;43090;52.604;13.318;2024-02-15T04:39:00;26.38;;;13.55;;
57233;SDS011;43090;52.604;13.318;2024-02-15T04:41:33;26.92;;;14.35;;
57233;SDS011;43090;52.604;13.318;2024-02-15T04:44:00;30.08;;;15.82;;
57233;SDS011;43090;52.604;13.318;2024-02-15T04:48:53;26.27;;;13.95;;
57233;SDS011;43090;52.604;13.318;2024-02-15T04:51:20;29.58;;;15.25;;
57233;SDS011;43090;52.604;13.318;2024-02-15T04:56:14;25.95;;;13.85;;
57233;SDS011;43090;52.604;13.318;2024-02-15T04:58:42;28.35;;;15.32;;
57233;SDS011;43090;52.604;13.318;2024-02-15T05:01:13;31.55;;;16.27;;
57233;SDS011;43090;52.604;13.318;2024-02-15T05:03:41;29.80;;;16.95;;
57233;SDS011;43090;52.604;13.318;2024-02-15T05:06:08;33.10;;;16.25;;
57233;SDS011;43090;52.604;13.318;2024-02-15T05:08:36;24.23;;;13.38;;
57233;SDS011;43090;52.604;13.318;2024-02-15T05:11:11;34.42;;;16.23;;
57233;SDS011;43090;52.604;13.318;2024-02-15T05:13:48;26.10;;;13.93;;
57233;SDS011;43090;52.604;13.318;2024-02-15T05:16:18;30.58;;;15.45;;
57233;SDS011;43090;52.604;13.318;2024-02-15T05:18:45;29.75;;;15.00;;
57233;SDS011;43090;52.604;13.318;2024-02-15T05:21:12;40.08;;;17.05;;
57233;SDS011;43090;52.604;13.318;2024-02-15T05:23:39;36.83;;;17.45;;
57233;SDS011;43090;52.604;13.318;2024-02-15T05:28:32;34.22;;;15.80;;
57233;SDS011;43090;52.604;13.318;2024-02-15T05:31:09;31.58;;;15.60;;
57233;SDS011;43090;52.604;13.318;2024-02-15T05:33:37;32.47;;;15.50;;
57233;SDS011;43090;52.604;13.318;2024-02-15T05:36:11;37.25;;;16.92;;
57233;SDS011;43090;52.604;13.318;2024-02-15T05:38:38;29.40;;;16.13;;
57233;SDS011;43090;52.604;13.318;2024-02-15T05:41:07;29.73;;;15.27;;
57233;SDS011;43090;52.604;13.318;2024-02-15T05:43:40;27.20;;;13.75;;
57233;SDS011;43090;52.604;13.318;2024-02-15T05:46:24;27.90;;;14.77;;
57233;SDS011;43090;52.604;13.318;2024-02-15T05:48:51;32.05;;;15.35;;
57233;SDS011;43090;52.604;13.318;2024-02-15T05:51:21;32.95;;;16.00;;
57233;SDS011;43090;52.604;13.318;2024-02-15T05:53:48;30.58;;;15.18;;
57233;SDS011;43090;52.604;13.318;2024-02-15T05:56:16;32.00;;;14.57;;
57233;SDS011;43090;52.604;13.318;2024-02-15T05:58:43;29.27;;;14.15;;
57233;SDS011;43090;52.604;13.318;2024-02-15T06:01:09;32.53;;;14.73;;
57233;SDS011;43090;52.604;13.318;2024-02-15T06:03:39;29.40;;;13.73;;
57233;SDS011;43090;52.604;13.318;2024-02-15T06:06:17;26.25;;;14.10;;
57233;SDS011;43090;52.604;13.318;2024-02-15T06:08:47;32.17;;;14.57;;
57233;SDS011;43090;52.604;13.318;2024-02-15T06:11:23;31.80;;;14.52;;
57233;SDS011;43090;52.604;13.318;2024-02-15T06:13:50;28.58;;;14.23;;
57233;SDS011;43090;52.604;13.318;2024-02-15T06:16:17;26.67;;;14.38;;
57233;SDS011;43090;52.604;13.318;2024-02-15T06:18:44;29.52;;;14.93;;
57233;SDS011;43090;52.604;13.318;2024-02-15T06:23:37;30.40;;;14.35;;
57233;SDS011;43090;52.604;13.318;2024-02-15T06:26:08;30.45;;;14.20;;
57233;SDS011;43090;52.604;13.318;2024-02-15T06:31:22;34.55;;;13.90;;
57233;SDS011;43090;52.604;13.318;2024-02-15T06:34:12;31.58;;;14.23;;
57233;SDS011;43090;52.604;13.318;2024-02-15T06:36:57;28.70;;;13.98;;
57233;SDS011;43090;52.604;13.318;2024-02-15T06:39:44;33.40;;;14.02;;
57233;SDS011;43090;52.604;13.318;2024-02-15T06:42:12;24.42;;;12.77;;
57233;SDS011;43090;52.604;13.318;2024-02-15T06:44:49;30.13;;;13.80;;
57233;SDS011;43090;52.604;13.318;2024-02-15T06:47:16;33.65;;;14.57;;
57233;SDS011;43090;52.604;13.318;2024-02-15T06:49:45;27.67;;;14.38;;
57233;SDS011;43090;52.604;13.318;2024-02-15T06:52:12;28.80;;;14.02;;
57233;SDS011;43090;52.604;13.318;2024-02-15T06:54:42;31.33;;;13.70;;
57233;SDS011;43090;52.604;13.318;2024-02-15T06:57:09;26.58;;;13.10;;
57233;SDS011;43090;52.604;13.318;2024-02-15T06:59:36;30.00;;;14.20;;
57233;SDS011;43090;52.604;13.318;2024-02-15T07:02:04;29.23;;;13.75;;
57233;SDS011;43090;52.604;13.318;2024-02-15T07:04:32;37.30;;;17.67;;
57233;SDS011;43090;52.604;13.318;2024-02-15T07:06:59;31.73;;;15.23;;
57233;SDS011;43090;52.604;13.318;2024-02-15T07:09:28;25.90;;;13.65;;
57233;SDS011;43090;52.604;13.318;2024-02-15T07:11:56;30.63;;;14.05;;
57233;SDS011;43090;52.604;13.318;2024-02-15T07:14:24;25.98;;;13.45;;
57233;SDS011;43090;52.604;13.318;2024-02-15T07:16:55;27.92;;;13.95;;
57233;SDS011;43090;52.604;13.318;2024-02-15T07:19:25;23.73;;;12.10;;
57233;SDS011;43090;52.604;13.318;2024-02-15T07:21:55;28.80;;;13.98;;
57233;SDS011;43090;52.604;13.318;2024-02-15T07:24:23;25.83;;;13.38;;
57233;SDS011;43090;52.604;13.318;2024-02-15T07:26:54;24.45;;;12.35;;
57233;SDS011;43090;52.604;13.318;2024-02-15T07:29:22;25.92;;;12.57;;
57233;SDS011;43090;52.604;13.318;2024-02-15T07:31:49;32.42;;;14.40;;
57233;SDS011;43090;52.604;13.318;2024-02-15T07:34:16;30.58;;;13.55;;
57233;SDS011;43090;52.604;13.318;2024-02-15T07:36:46;29.05;;;14.05;;
57233;SDS011;43090;52.604;13.318;2024-02-15T07:39:13;30.05;;;14.68;;
57233;SDS011;43090;52.604;13.318;2024-02-15T07:41:52;27.58;;;13.07;;
57233;SDS011;43090;52.604;13.318;2024-02-15T07:44:19;30.80;;;14.07;;
57233;SDS011;43090;52.604;13.318;2024-02-15T07:49:12;35.10;;;15.60;;
57233;SDS011;43090;52.604;13.318;2024-02-15T07:51:39;29.30;;;12.70;;
57233;SDS011;43090;52.604;13.318;2024-02-15T07:56:33;23.00;;;11.63;;
57233;SDS011;43090;52.604;13.318;2024-02-15T07:59:01;28.98;;;13.57;;
57233;SDS011;43090;52.604;13.318;2024-02-15T08:01:27;21.13;;;12.23;;
57233;SDS011;43090;52.604;13.318;2024-02-15T08:03:55;29.73;;;14.52;;
57233;SDS011;43090;52.604;13.318;2024-02-15T08:06:23;28.00;;;13.05;;
57233;SDS011;43090;52.604;13.318;2024-02-15T08:08:55;23.48;;;12.80;;
57233;SDS011;43090;52.604;13.318;2024-02-15T08:11:21;20.92;;;12.00;;
57233;SDS011;43090;52.604;13.318;2024-02-15T08:13:50;25.40;;;12.52;;
57233;SDS011;43090;52.604;13.318;2024-02-15T08:16:22;24.20;;;11.65;;
57233;SDS011;43090;52.604;13.318;2024-02-15T08:18:49;22.48;;;10.98;;
57233;SDS011;43090;52.604;13.318;2024-02-15T08:21:27;31.25;;;12.63;;
57233;SDS011;43090;52.604;13.318;2024-02-15T08:23:56;23.92;;;11.30;;
57233;SDS011;43090;52.604;13.318;2024-02-15T08:26:22;19.90;;;11.02;;
57233;SDS011;43090;52.604;13.318;2024-02-15T08:28:49;21.48;;;11.70;;
57233;SDS011;43090;52.604;13.318;2024-02-15T08:31:16;19.30;;;10.88;;
57233;SDS011;43090;52.604;13.318;2024-02-15T08:36:18;16.60;;;9.52;;
57233;SDS011;43090;52.604;13.318;2024-02-15T08:38:53;18.50;;;9.18;;
57233;SDS011;43090;52.604;13.318;2024-02-15T08:41:26;21.60;;;10.90;;
57233;SDS011;43090;52.604;13.318;2024-02-15T08:44:02;20.27;;;10.20;;
57233;SDS011;43090;52.604;13.318;2024-02-15T08:46:51;21.60;;;10.45;;
57233;SDS011;43090;52.604;13.318;2024-02-15T08:49:18;21.48;;;10.75;;
57233;SDS011;43090;52.604;13.318;2024-02-15T08:52:12;17.77;;;9.98;;
57233;SDS011;43090;52.604;13.318;2024-02-15T08:54:43;16.60;;;9.05;;
57233;SDS011;43090;52.604;13.318;2024-02-15T08:57:13;16.88;;;9.45;;
57233;SDS011;43090;52.604;13.318;2024-02-15T08:59:40;19.60;;;10.13;;
57233;SDS011;43090;52.604;13.318;2024-02-15T09:02:09;22.05;;;10.00;;
57233;SDS011;43090;52.604;13.318;2024-02-15T09:04:35;18.45;;;8.95;;
57233;SDS011;43090;52.604;13.318;2024-02-15T09:07:02;18.75;;;9.52;;
57233;SDS011;43090;52.604;13.318;2024-02-15T09:09:30;15.18;;;8.35;;
57233;SDS011;43090;52.604;13.318;2024-02-15T09:12:03;16.02;;;9.15;;
57233;SDS011;43090;52.604;13.318;2024-02-15T09:14:35;16.20;;;9.35;;
57233;SDS011;43090;52.604;13.318;2024-02-15T09:17:05;16.23;;;8.80;;
57233;SDS011;43090;52.604;13.318;2024-02-15T09:23:40;16.42;;;7.78;;
57233;SDS011;43090;52.604;13.318;2024-02-15T09:26:23;17.58;;;8.05;;
57233;SDS011;43090;52.604;13.318;2024-02-15T09:28:49;18.48;;;8.25;;
57233;SDS011;43090;52.604;13.318;2024-02-15T09:31:22;13.10;;;8.38;;
57233;SDS011;43090;52.604;13.318;2024-02-15T09:36:54;10.45;;;6.65;;
57233;SDS011;43090;52.604;13.318;2024-02-15T09:39:29;12.82;;;7.43;;
57233;SDS011;43090;52.604;13.318;2024-02-15T09:45:08;14.82;;;7.57;;
57233;SDS011;43090;52.604;13.318;2024-02-15T09:48:20;10.02;;;6.82;;
57233;SDS011;43090;52.604;13.318;2024-02-15T09:58:09;12.52;;;7.30;;
57233;SDS011;43090;52.604;13.318;2024-02-15T10:01:03;12.18;;;7.13;;
57233;SDS011;43090;52.604;13.318;2024-02-15T10:04:10;10.98;;;6.80;;
57233;SDS011;43090;52.604;13.318;2024-02-15T10:06:42;10.80;;;6.88;;
57233;SDS011;43090;52.604;13.318;2024-02-15T10:10:13;13.68;;;6.32;;
57233;SDS011;43090;52.604;13.318;2024-02-15T10:12:53;10.68;;;6.10;;
57233;SDS011;43090;52.604;13.318;2024-02-15T10:15:46;13.13;;;6.93;;
57233;SDS011;43090;52.604;13.318;2024-02-15T10:18:14;10.98;;;6.63;;
57233;SDS011;43090;52.604;13.318;2024-02-15T10:20:57;10.50;;;5.80;;
57233;SDS011;43090;52.604;13.318;2024-02-15T10:24:19;11.90;;;6.53;;
57233;SDS011;43090;52.604;13.318;2024-02-15T10:26:46;10.88;;;6.43;;
57233;SDS011;43090;52.604;13.318;2024-02-15T10:29:14;11.77;;;6.70;;
57233;SDS011;43090;52.604;13.318;2024-02-15T10:31:53;8.82;;;5.30;;
57233;SDS011;43090;52.604;13.318;2024-02-15T10:34:31;9.73;;;6.25;;
57233;SDS011;43090;52.604;13.318;2024-02-15T10:37:14;9.63;;;5.78;;
57233;SDS011;43090;52.604;13.318;2024-02-15T10:47:51;9.13;;;5.78;;
57233;SDS011;43090;52.604;13.318;2024-02-15T11:01:49;7.80;;;5.10;;
57233;SDS011;43090;52.604;13.318;2024-02-15T11:04:21;12.23;;;5.13;;
57233;SDS011;43090;52.604;13.318;2024-02-15T11:10:59;6.03;;;4.10;;
57233;SDS011;43090;52.604;13.318;2024-02-15T11:13:35;7.10;;;4.47;;
57233;SDS011;43090;52.604;13.318;2024-02-15T11:25:47;4.90;;;3.58;;
57233;SDS011;43090;52.604;13.318;2024-02-15T11:35:33;4.97;;;3.70;;
57233;SDS011;43090;52.604;13.318;2024-02-15T11:38:04;5.85;;;3.63;;
57233;SDS011;43090;52.604;13.318;2024-02-15T11:46:24;8.77;;;4.30;;
57233;SDS011;43090;52.604;13.318;2024-02-15T11:48:52;11.32;;;5.07;;
57233;SDS011;43090;52.604;13.318;2024-02-15T11:52:45;8.18;;;4.47;;
57233;SDS011;43090;52.604;13.318;2024-02-15T11:55:18;8.35;;;3.38;;
57233;SDS011;43090;52.604;13.318;2024-02-15T11:57:54;5.72;;;3.97;;
57233;SDS011;43090;52.604;13.318;2024-02-15T12:00:29;9.40;;;3.80;;
57233;SDS011;43090;52.604;13.318;2024-02-15T12:03:33;6.05;;;3.90;;
57233;SDS011;43090;52.604;13.318;2024-02-15T12:06:56;7.80;;;4.45;;
57233;SDS011;43090;52.604;13.318;2024-02-15T12:13:30;7.13;;;4.50;;
57233;SDS011;43090;52.604;13.318;2024-02-15T12:16:40;11.07;;;4.55;;
57233;SDS011;43090;52.604;13.318;2024-02-15T12:26:59;11.02;;;4.47;;
57233;SDS011;43090;52.604;13.318;2024-02-15T12:30:07;7.15;;;4.13;;
57233;SDS011;43090;52.604;13.318;2024-02-15T12:33:11;7.55;;;3.65;;
57233;SDS011;43090;52.604;13.318;2024-02-15T12:35:48;8.10;;;3.78;;
57233;SDS011;43090;52.604;13.318;2024-02-15T12:45:16;9.30;;;4.18;;
57233;SDS011;43090;52.604;13.318;2024-02-15T13:03:08;6.68;;;3.10;;
57233;SDS011;43090;52.604;13.318;2024-02-15T13:17:37;9.43;;;2.83;;
57233;SDS011;43090;52.604;13.318;2024-02-15T13:20:08;8.40;;;2.87;;
57233;SDS011;43090;52.604;13.318;2024-02-15T13:34:07;7.65;;;3.03;;
57233;SDS011;43090;52.604;13.318;2024-02-15T13:51:12;7.10;;;3.53;;
57233;SDS011;43090;52.604;13.318;2024-02-15T13:53:48;7.22;;;3.05;;
57233;SDS011;43090;52.604;13.318;2024-02-15T13:56:18;6.00;;;2.95;;
57233;SDS011;43090;52.604;13.318;2024-02-15T14:06:12;11.77;;;2.97;;
57233;SDS011;43090;52.604;13.318;2024-02-15T14:08:50;5.38;;;2.75;;
57233;SDS011;43090;52.604;13.318;2024-02-15T14:11:17;4.88;;;2.70;;
57233;SDS011;43090;52.604;13.318;2024-02-15T14:14:03;4.95;;;2.35;;
